createdAt,value
2022-09-23T00:00:09.965Z,9.30
2022-09-23T00:01:11.696Z,8.50
2022-09-23T00:02:13.459Z,8.23
2022-09-23T00:03:16.080Z,10.05
2022-09-23T00:04:17.623Z,9.07
2022-09-23T00:05:19.151Z,8.35
2022-09-23T00:06:21.988Z,8.73
2022-09-23T00:07:23.582Z,7.97
2022-09-23T00:08:25.636Z,10.10
2022-09-23T00:09:27.259Z,12.52
2022-09-23T00:10:29.162Z,10.98
2022-09-23T00:11:30.689Z,9.73
2022-09-23T00:12:32.371Z,9.57
2022-09-23T00:13:38.593Z,9.55
2022-09-23T00:14:40.153Z,11.27
2022-09-23T00:15:41.701Z,11.25
2022-09-23T00:16:43.298Z,9.95
2022-09-23T00:17:45.153Z,9.98
2022-09-23T00:18:46.701Z,10.35
2022-09-23T00:19:48.389Z,10.15
2022-09-23T00:20:49.920Z,10.25
2022-09-23T00:21:51.505Z,10.07
2022-09-23T00:22:53.430Z,10.23
2022-09-23T00:23:54.935Z,10.10
2022-09-23T00:24:56.770Z,8.80
2022-09-23T00:25:59.145Z,14.68
2022-09-23T00:27:01.328Z,9.88
2022-09-23T00:28:03.290Z,11.07
2022-09-23T00:29:04.980Z,10.15
2022-09-23T00:30:08.225Z,9.32
2022-09-23T00:31:11.552Z,8.27
2022-09-23T00:32:13.146Z,11.07
2022-09-23T00:33:14.745Z,9.02
2022-09-23T00:34:16.791Z,10.73
2022-09-23T00:35:18.366Z,10.73
2022-09-23T00:36:19.900Z,11.35
2022-09-23T00:37:21.421Z,8.95
2022-09-23T00:38:23.072Z,8.88
2022-09-23T00:39:26.107Z,9.63
2022-09-23T00:40:27.779Z,7.95
2022-09-23T00:41:29.327Z,14.20
2022-09-23T00:42:30.861Z,10.10
2022-09-23T00:43:52.254Z,9.65
2022-09-23T00:44:57.909Z,8.85
2022-09-23T00:45:59.474Z,9.60
2022-09-23T00:47:01.120Z,7.85
2022-09-23T00:48:02.756Z,9.07
2022-09-23T00:49:09.294Z,10.07
2022-09-23T00:50:15.775Z,10.02
2022-09-23T00:51:19.344Z,8.13
2022-09-23T00:52:20.985Z,9.10
2022-09-23T00:53:23.574Z,8.98
2022-09-23T00:54:25.154Z,8.25
2022-09-23T00:55:48.882Z,8.52
2022-09-23T00:56:50.456Z,9.27
2022-09-23T00:57:54.578Z,10.02
2022-09-23T00:58:56.112Z,8.20
2022-09-23T00:59:58.031Z,8.30
2022-09-23T01:01:00.583Z,11.63
2022-09-23T01:02:02.247Z,9.23
2022-09-23T01:03:05.966Z,9.57
2022-09-23T01:04:07.682Z,9.50
2022-09-23T01:05:09.551Z,8.70
2022-09-23T01:06:11.183Z,9.50
2022-09-23T01:07:13.746Z,8.77
2022-09-23T01:08:15.268Z,8.63
2022-09-23T01:09:17.268Z,9.23
2022-09-23T01:10:18.980Z,8.88
2022-09-23T01:11:50.220Z,10.90
2022-09-23T01:12:57.906Z,8.18
2022-09-23T01:14:19.070Z,8.95
2022-09-23T01:15:40.604Z,9.02
2022-09-23T01:16:51.448Z,8.30
2022-09-23T01:18:12.214Z,8.75
2022-09-23T01:19:39.680Z,8.63
2022-09-23T01:20:46.463Z,7.95
2022-09-23T01:22:05.115Z,9.25
2022-09-23T01:23:43.760Z,6.95
2022-09-23T01:24:52.311Z,8.52
2022-09-23T01:26:27.577Z,9.35
2022-09-23T01:27:59.892Z,9.50
2022-09-23T01:29:34.946Z,8.02
2022-09-23T01:30:48.317Z,9.90
2022-09-23T01:32:18.293Z,8.85
2022-09-23T01:33:35.626Z,7.53
2022-09-23T01:34:49.551Z,7.75
2022-09-23T01:36:06.321Z,10.18
2022-09-23T01:37:20.910Z,9.20
2022-09-23T01:38:34.643Z,7.90
2022-09-23T01:40:10.338Z,8.77
2022-09-23T01:41:20.807Z,8.73
2022-09-23T01:42:33.630Z,7.72
2022-09-23T01:43:47.814Z,7.80
2022-09-23T01:44:53.749Z,9.68
2022-09-23T01:45:57.763Z,8.13
2022-09-23T01:47:10.792Z,9.90
2022-09-23T01:48:23.665Z,9.60
2022-09-23T01:49:32.430Z,9.50
2022-09-23T01:50:54.025Z,8.30
2022-09-23T01:52:01.600Z,10.25
2022-09-23T01:53:06.075Z,9.20
2022-09-23T01:54:16.058Z,7.88
2022-09-23T01:55:21.020Z,9.32
2022-09-23T01:56:24.568Z,7.40
2022-09-23T01:57:29.567Z,8.47
2022-09-23T01:58:42.806Z,8.50
2022-09-23T01:59:57.538Z,6.63
2022-09-23T02:01:05.078Z,8.88
2022-09-23T02:02:15.366Z,8.65
2022-09-23T02:03:42.734Z,8.10
2022-09-23T02:05:12.153Z,8.18
2022-09-23T02:06:28.854Z,9.68
2022-09-23T02:07:35.913Z,8.20
2022-09-23T02:09:12.015Z,8.48
2022-09-23T02:10:28.533Z,8.40
2022-09-23T02:11:30.222Z,10.68
2022-09-23T02:12:31.763Z,7.20
2022-09-23T02:13:45.182Z,8.98
2022-09-23T02:15:08.666Z,8.48
2022-09-23T02:16:14.753Z,11.27
2022-09-23T02:17:22.994Z,9.02
2022-09-23T02:18:33.963Z,7.82
2022-09-23T02:19:49.060Z,8.90
2022-09-23T02:20:51.202Z,10.13
2022-09-23T02:21:55.525Z,11.87
2022-09-23T02:23:13.402Z,13.55
2022-09-23T02:24:15.636Z,13.30
2022-09-23T02:25:17.480Z,15.10
2022-09-23T02:26:27.396Z,12.45
2022-09-23T02:27:38.091Z,11.05
2022-09-23T02:28:46.505Z,10.52
2022-09-23T02:30:07.298Z,9.82
2022-09-23T02:31:16.436Z,12.05
2022-09-23T02:32:18.590Z,8.38
2022-09-23T02:33:35.348Z,9.30
2022-09-23T02:35:01.886Z,9.57
2022-09-23T02:36:07.980Z,9.25
2022-09-23T02:37:35.242Z,11.93
2022-09-23T02:38:42.640Z,7.93
2022-09-23T02:39:53.013Z,9.52
2022-09-23T02:40:58.747Z,9.55
2022-09-23T02:42:07.785Z,9.52
2022-09-23T02:43:12.664Z,8.02
2022-09-23T02:44:15.643Z,9.57
2022-09-23T02:45:17.204Z,8.93
2022-09-23T02:46:18.846Z,7.60
2022-09-23T02:47:20.745Z,9.00
2022-09-23T02:48:24.425Z,8.48
2022-09-23T02:49:27.664Z,9.82
2022-09-23T02:50:30.978Z,11.27
2022-09-23T02:51:37.908Z,9.05
2022-09-23T02:52:39.454Z,8.52
2022-09-23T02:53:41.105Z,8.23
2022-09-23T02:54:42.644Z,9.30
2022-09-23T02:55:44.254Z,9.27
2022-09-23T02:56:45.807Z,8.45
2022-09-23T02:57:48.290Z,9.98
2022-09-23T02:58:52.579Z,8.32
2022-09-23T02:59:54.192Z,8.90
2022-09-23T03:01:11.025Z,9.02
2022-09-23T03:02:23.753Z,11.45
2022-09-23T03:03:43.640Z,11.13
2022-09-23T03:04:55.031Z,8.75
2022-09-23T03:05:57.743Z,9.45
2022-09-23T03:07:22.331Z,8.57
2022-09-23T03:08:36.787Z,9.18
2022-09-23T03:09:53.135Z,8.13
2022-09-23T03:11:04.386Z,9.30
2022-09-23T03:12:34.379Z,10.73
2022-09-23T03:13:54.079Z,12.55
2022-09-23T03:15:01.330Z,9.13
2022-09-23T03:16:29.484Z,11.65
2022-09-23T03:18:01.919Z,9.27
2022-09-23T03:19:06.430Z,9.75
2022-09-23T03:20:13.431Z,11.50
2022-09-23T03:21:36.012Z,13.02
2022-09-23T03:22:39.963Z,10.07
2022-09-23T03:23:41.663Z,11.20
2022-09-23T03:24:44.942Z,10.15
2022-09-23T03:25:47.422Z,11.25
2022-09-23T03:26:48.949Z,10.52
2022-09-23T03:27:50.482Z,14.57
2022-09-23T03:28:52.071Z,12.65
2022-09-23T03:29:53.794Z,12.18
2022-09-23T03:30:55.378Z,11.77
2022-09-23T03:31:56.917Z,12.25
2022-09-23T03:33:00.243Z,11.30
2022-09-23T03:34:03.512Z,10.18
2022-09-23T03:35:05.543Z,9.60
2022-09-23T03:36:27.380Z,10.10
2022-09-23T03:37:40.135Z,9.50
2022-09-23T03:38:43.598Z,10.25
2022-09-23T03:40:43.542Z,10.07
2022-09-23T03:41:48.494Z,8.85
2022-09-23T03:42:50.191Z,9.67
2022-09-23T03:43:53.385Z,10.32
2022-09-23T03:44:56.440Z,10.25
2022-09-23T03:45:58.246Z,10.02
2022-09-23T03:47:02.301Z,9.70
2022-09-23T03:48:04.433Z,9.15
2022-09-23T03:49:13.263Z,9.73
2022-09-23T03:50:17.343Z,9.55
2022-09-23T03:51:23.863Z,10.20
2022-09-23T03:52:25.834Z,9.13
2022-09-23T03:53:27.422Z,8.93
2022-09-23T03:54:30.042Z,9.52
2022-09-23T03:55:32.371Z,9.32
2022-09-23T03:56:33.937Z,8.95
2022-09-23T03:57:36.225Z,8.43
2022-09-23T03:58:38.257Z,10.98
2022-09-23T03:59:39.994Z,12.00
2022-09-23T04:00:42.419Z,8.32
2022-09-23T04:01:44.309Z,8.63
2022-09-23T04:02:45.997Z,9.43
2022-09-23T04:03:48.415Z,9.80
2022-09-23T04:04:50.130Z,9.85
2022-09-23T04:05:51.909Z,8.95
2022-09-23T04:06:56.933Z,9.05
2022-09-23T04:07:58.494Z,11.18
2022-09-23T04:09:01.652Z,9.63
2022-09-23T04:10:05.043Z,10.70
2022-09-23T04:11:06.870Z,9.70
2022-09-23T04:12:09.505Z,13.27
2022-09-23T04:13:11.427Z,10.88
2022-09-23T04:14:13.555Z,10.40
2022-09-23T04:15:15.170Z,9.93
2022-09-23T04:16:16.794Z,10.90
2022-09-23T04:17:18.421Z,9.48
2022-09-23T04:18:21.393Z,9.68
2022-09-23T04:19:23.009Z,12.35
2022-09-23T04:20:26.093Z,10.55
2022-09-23T04:21:27.823Z,9.88
2022-09-23T04:22:29.383Z,9.52
2022-09-23T04:23:31.028Z,9.75
2022-09-23T04:24:32.654Z,10.17
2022-09-23T04:25:34.480Z,10.70
2022-09-23T04:26:36.287Z,11.95
2022-09-23T04:27:38.154Z,10.05
2022-09-23T04:28:39.816Z,18.45
2022-09-23T04:29:41.529Z,10.75
2022-09-23T04:30:43.871Z,10.23
2022-09-23T04:31:45.561Z,10.82
2022-09-23T04:32:47.204Z,9.98
2022-09-23T04:33:48.759Z,10.05
2022-09-23T04:34:50.311Z,13.07
2022-09-23T04:35:52.132Z,10.13
2022-09-23T04:36:53.767Z,11.30
2022-09-23T04:37:55.358Z,12.32
2022-09-23T04:38:57.141Z,10.45
2022-09-23T04:39:58.773Z,10.10
2022-09-23T04:41:00.506Z,10.38
2022-09-23T04:42:03.887Z,11.30
2022-09-23T04:43:05.481Z,11.85
2022-09-23T04:44:07.128Z,11.55
2022-09-23T04:45:08.990Z,12.00
2022-09-23T04:46:11.589Z,11.18
2022-09-23T04:47:13.386Z,9.00
2022-09-23T04:48:14.965Z,9.55
2022-09-23T04:49:16.612Z,13.63
2022-09-23T04:50:18.254Z,10.43
2022-09-23T04:51:21.138Z,12.18
2022-09-23T04:52:22.758Z,10.00
2022-09-23T04:53:24.352Z,10.02
2022-09-23T04:54:25.918Z,8.82
2022-09-23T04:55:27.500Z,10.60
2022-09-23T04:56:32.170Z,10.25
2022-09-23T04:57:34.629Z,10.15
2022-09-23T04:58:36.646Z,11.23
2022-09-23T04:59:38.227Z,13.23
2022-09-23T05:00:39.813Z,10.13
2022-09-23T05:01:41.727Z,10.60
2022-09-23T05:02:46.725Z,10.15
2022-09-23T05:03:48.271Z,10.35
2022-09-23T05:04:50.433Z,9.85
2022-09-23T05:05:53.031Z,14.20
2022-09-23T05:06:54.733Z,10.05
2022-09-23T05:07:56.423Z,12.35
2022-09-23T05:08:58.408Z,10.50
2022-09-23T05:10:00.039Z,11.48
2022-09-23T05:11:02.309Z,10.80
2022-09-23T05:12:04.142Z,10.15
2022-09-23T05:13:05.692Z,11.07
2022-09-23T05:14:07.329Z,11.43
2022-09-23T05:15:09.042Z,10.52
2022-09-23T05:16:12.115Z,10.00
2022-09-23T05:17:14.768Z,16.60
2022-09-23T05:18:20.683Z,11.55
2022-09-23T05:19:23.093Z,9.55
2022-09-23T05:20:24.742Z,11.65
2022-09-23T05:21:29.140Z,9.88
2022-09-23T05:22:30.861Z,11.32
2022-09-23T05:23:32.446Z,11.55
2022-09-23T05:24:34.134Z,10.55
2022-09-23T05:25:38.325Z,11.65
2022-09-23T05:26:40.215Z,12.30
2022-09-23T05:27:42.385Z,11.20
2022-09-23T05:28:44.157Z,11.00
2022-09-23T05:29:46.442Z,9.50
2022-09-23T05:30:47.998Z,10.63
2022-09-23T05:31:49.701Z,11.10
2022-09-23T05:32:51.316Z,11.63
2022-09-23T05:33:57.616Z,10.32
2022-09-23T05:34:59.549Z,11.27
2022-09-23T05:36:01.572Z,10.13
2022-09-23T05:37:03.310Z,11.83
2022-09-23T05:38:04.895Z,13.45
2022-09-23T05:39:07.637Z,11.60
2022-09-23T05:40:09.767Z,10.65
2022-09-23T05:41:12.777Z,10.68
2022-09-23T05:42:14.709Z,11.45
2022-09-23T05:43:16.289Z,12.13
2022-09-23T05:44:18.183Z,10.07
2022-09-23T05:45:19.747Z,11.73
2022-09-23T05:46:27.973Z,11.18
2022-09-23T05:47:29.653Z,9.03
2022-09-23T05:48:31.702Z,8.68
2022-09-23T05:49:58.005Z,10.95
2022-09-23T05:50:54.952Z,7.70
2022-09-23T05:51:56.743Z,8.95
2022-09-23T05:52:58.338Z,10.57
2022-09-23T05:54:00.470Z,10.00
2022-09-23T05:55:02.729Z,9.82
2022-09-23T05:57:06.252Z,9.27
2022-09-23T05:58:07.830Z,9.40
2022-09-23T05:59:09.462Z,10.10
2022-09-23T06:00:11.467Z,9.93
2022-09-23T06:01:18.201Z,8.57
2022-09-23T06:02:20.016Z,9.90
2022-09-23T06:03:21.671Z,10.88
2022-09-23T06:04:23.368Z,11.20
2022-09-23T06:05:24.982Z,12.07
2022-09-23T06:06:30.713Z,10.05
2022-09-23T06:07:32.690Z,10.48
2022-09-23T06:08:34.671Z,10.67
2022-09-23T06:09:36.892Z,12.40
2022-09-23T06:10:42.875Z,9.43
2022-09-23T06:11:44.503Z,10.57
2022-09-23T06:12:46.080Z,9.70
2022-09-23T06:13:47.692Z,8.65
2022-09-23T06:14:50.723Z,9.68
2022-09-23T06:15:52.716Z,10.88
2022-09-23T06:16:54.343Z,9.70
2022-09-23T06:17:55.913Z,12.15
2022-09-23T06:19:00.649Z,10.67
2022-09-23T06:20:04.897Z,13.55
2022-09-23T06:21:06.595Z,11.35
2022-09-23T06:22:08.304Z,12.07
2022-09-23T06:23:10.871Z,10.77
2022-09-23T06:24:17.087Z,10.82
2022-09-23T06:25:23.139Z,11.02
2022-09-23T06:26:24.696Z,11.73
2022-09-23T06:27:26.361Z,10.75
2022-09-23T06:28:32.426Z,10.95
2022-09-23T06:29:34.063Z,9.70
2022-09-23T06:30:35.655Z,10.00
2022-09-23T06:31:37.615Z,13.05
2022-09-23T06:32:39.299Z,11.50
2022-09-23T06:33:42.487Z,9.48
2022-09-23T06:34:51.422Z,13.07
2022-09-23T06:35:59.900Z,10.63
2022-09-23T06:37:13.552Z,9.63
2022-09-23T06:38:16.399Z,10.35
2022-09-23T06:39:17.957Z,9.43
2022-09-23T06:40:19.851Z,10.07
2022-09-23T06:41:21.542Z,8.93
2022-09-23T06:42:23.088Z,9.77
2022-09-23T06:43:25.483Z,9.63
2022-09-23T06:44:28.527Z,9.50
2022-09-23T06:45:30.125Z,11.20
2022-09-23T06:46:31.874Z,10.75
2022-09-23T06:47:33.566Z,11.65
2022-09-23T06:48:37.792Z,8.95
2022-09-23T06:49:39.412Z,9.40
2022-09-23T06:50:40.950Z,9.53
2022-09-23T06:51:42.737Z,9.48
2022-09-23T06:52:51.037Z,8.82
2022-09-23T06:53:53.021Z,10.23
2022-09-23T06:54:54.587Z,9.20
2022-09-23T06:56:03.813Z,8.85
2022-09-23T06:57:05.503Z,9.30
2022-09-23T06:58:08.186Z,10.80
2022-09-23T06:59:10.551Z,9.40
2022-09-23T07:00:13.322Z,9.48
2022-09-23T07:01:16.437Z,11.30
2022-09-23T07:02:18.211Z,8.95
2022-09-23T07:03:20.593Z,9.82
2022-09-23T07:04:24.113Z,11.02
2022-09-23T07:05:28.904Z,9.80
2022-09-23T07:06:30.526Z,9.63
2022-09-23T07:07:32.136Z,9.43
2022-09-23T07:08:33.962Z,8.23
2022-09-23T07:09:35.647Z,9.35
2022-09-23T07:10:37.242Z,9.88
2022-09-23T07:11:39.474Z,9.73
2022-09-23T07:12:41.338Z,11.27
2022-09-23T07:13:42.969Z,9.95
2022-09-23T07:14:44.841Z,8.88
2022-09-23T07:15:51.956Z,7.97
2022-09-23T07:16:53.922Z,9.43
2022-09-23T07:17:56.456Z,8.73
2022-09-23T07:18:58.127Z,8.43
2022-09-23T07:19:59.709Z,9.77
2022-09-23T07:21:15.116Z,8.77
2022-09-23T07:22:17.921Z,11.40
2022-09-23T07:23:19.829Z,8.40
2022-09-23T07:24:22.357Z,8.43
2022-09-23T07:25:23.980Z,8.30
2022-09-23T07:26:25.792Z,8.43
2022-09-23T07:27:27.529Z,8.32
2022-09-23T07:28:29.260Z,8.00
2022-09-23T07:29:43.504Z,8.93
2022-09-23T07:30:57.564Z,7.88
2022-09-23T07:32:12.363Z,7.75
2022-09-23T07:33:28.641Z,7.60
2022-09-23T07:34:32.921Z,7.82
2022-09-23T07:35:34.664Z,7.43
2022-09-23T07:36:37.503Z,8.30
2022-09-23T07:37:39.802Z,10.15
2022-09-23T07:38:45.200Z,7.53
2022-09-23T07:39:47.385Z,7.35
2022-09-23T07:40:49.242Z,8.30
2022-09-23T07:41:51.892Z,7.18
2022-09-23T07:42:53.894Z,9.25
2022-09-23T07:43:58.705Z,7.47
2022-09-23T07:45:00.341Z,7.05
2022-09-23T07:46:03.283Z,8.25
2022-09-23T07:47:05.181Z,6.20
2022-09-23T07:48:06.790Z,6.65
2022-09-23T07:49:08.456Z,7.70
2022-09-23T07:50:13.161Z,7.22
2022-09-23T07:51:22.632Z,8.18
2022-09-23T07:52:24.255Z,7.13
2022-09-23T07:53:26.386Z,8.50
2022-09-23T07:54:29.854Z,8.90
2022-09-23T07:55:31.481Z,8.77
2022-09-23T07:56:33.455Z,9.65
2022-09-23T07:57:35.124Z,8.13
2022-09-23T07:58:36.745Z,6.75
2022-09-23T07:59:38.335Z,7.85
2022-09-23T08:00:39.992Z,8.50
2022-09-23T08:01:43.903Z,7.90
2022-09-23T08:02:48.443Z,7.40
2022-09-23T08:03:53.851Z,7.75
2022-09-23T08:04:55.626Z,9.07
2022-09-23T08:06:10.122Z,9.23
2022-09-23T08:07:12.204Z,6.63
2022-09-23T08:08:14.244Z,7.43
2022-09-23T08:09:16.456Z,7.07
2022-09-23T08:10:21.163Z,8.40
2022-09-23T08:11:24.146Z,7.20
2022-09-23T08:12:25.711Z,7.47
2022-09-23T08:13:27.287Z,8.52
2022-09-23T08:14:28.911Z,10.45
2022-09-23T08:15:31.242Z,6.60
2022-09-23T08:16:33.000Z,7.47
2022-09-23T08:17:34.583Z,6.90
2022-09-23T08:18:36.307Z,7.72
2022-09-23T08:19:37.882Z,7.03
2022-09-23T08:20:47.265Z,8.75
2022-09-23T08:21:52.852Z,6.72
2022-09-23T08:22:54.742Z,7.50
2022-09-23T08:23:56.315Z,6.78
2022-09-23T08:24:58.484Z,7.32
2022-09-23T08:26:01.807Z,7.37
2022-09-23T08:27:03.733Z,6.97
2022-09-23T08:28:05.310Z,6.80
2022-09-23T08:29:09.849Z,7.03
2022-09-23T08:30:11.864Z,6.45
2022-09-23T08:31:14.239Z,7.30
2022-09-23T08:32:16.184Z,6.55
2022-09-23T08:33:23.083Z,6.22
2022-09-23T08:34:27.465Z,6.32
2022-09-23T08:35:29.361Z,6.93
2022-09-23T08:36:31.018Z,7.40
2022-09-23T08:37:32.643Z,6.28
2022-09-23T08:38:34.253Z,6.63
2022-09-23T08:39:35.892Z,5.88
2022-09-23T08:40:39.237Z,7.50
2022-09-23T08:41:59.337Z,5.88
2022-09-23T08:43:00.966Z,6.38
2022-09-23T08:44:04.669Z,6.32
2022-09-23T08:45:06.858Z,7.75
2022-09-23T08:46:11.016Z,6.13
2022-09-23T08:47:12.555Z,6.03
2022-09-23T08:48:15.834Z,6.28
2022-09-23T08:49:26.498Z,5.28
2022-09-23T08:50:42.543Z,5.95
2022-09-23T08:51:47.368Z,5.95
2022-09-23T08:52:55.023Z,6.07
2022-09-23T08:53:56.644Z,7.63
2022-09-23T08:54:58.222Z,6.22
2022-09-23T08:56:00.204Z,7.20
2022-09-23T08:57:02.085Z,6.95
2022-09-23T08:58:27.036Z,6.40
2022-09-23T08:59:43.068Z,6.75
2022-09-23T09:00:47.864Z,5.93
2022-09-23T09:01:53.146Z,10.43
2022-09-23T09:02:54.754Z,6.55
2022-09-23T09:03:57.039Z,8.13
2022-09-23T09:05:01.203Z,7.43
2022-09-23T09:06:02.778Z,8.18
2022-09-23T09:07:31.928Z,7.80
2022-09-23T09:08:33.831Z,8.18
2022-09-23T09:09:48.948Z,7.03
2022-09-23T09:10:50.674Z,6.65
2022-09-23T09:11:55.020Z,6.38
2022-09-23T09:13:09.583Z,8.20
2022-09-23T09:14:17.044Z,6.90
2022-09-23T09:15:18.539Z,7.40
2022-09-23T09:16:42.184Z,7.97
2022-09-23T09:17:59.384Z,11.88
2022-09-23T09:19:01.392Z,8.25
2022-09-23T09:20:16.867Z,6.95
2022-09-23T09:21:18.435Z,7.50
2022-09-23T09:23:58.387Z,8.95
2022-09-23T09:25:22.593Z,6.72
2022-09-23T09:26:28.264Z,7.32
2022-09-23T09:27:29.885Z,6.72
2022-09-23T09:28:39.223Z,7.13
2022-09-23T09:29:50.070Z,8.20
2022-09-23T09:30:54.504Z,7.28
2022-09-23T09:31:57.602Z,7.47
2022-09-23T09:33:07.551Z,7.90
2022-09-23T09:34:36.789Z,7.28
2022-09-23T09:35:53.578Z,6.40
2022-09-23T09:37:07.159Z,13.00
2022-09-23T09:38:09.141Z,8.05
2022-09-23T09:39:14.231Z,7.35
2022-09-23T09:40:20.300Z,6.82
2022-09-23T09:41:24.727Z,7.10
2022-09-23T09:42:40.446Z,9.60
2022-09-23T09:43:44.163Z,7.18
2022-09-23T09:44:58.558Z,7.93
2022-09-23T09:46:26.983Z,10.45
2022-09-23T09:47:48.952Z,6.57
2022-09-23T09:48:54.510Z,8.48
2022-09-23T09:50:08.836Z,7.03
2022-09-23T09:51:21.609Z,8.70
2022-09-23T09:52:26.094Z,8.10
2022-09-23T09:53:32.138Z,7.10
2022-09-23T09:54:33.774Z,7.50
2022-09-23T09:55:36.130Z,6.38
2022-09-23T09:56:37.766Z,6.40
2022-09-23T09:57:44.305Z,6.78
2022-09-23T09:58:49.187Z,7.63
2022-09-23T09:59:50.737Z,7.05
2022-09-23T10:00:52.999Z,7.00
2022-09-23T10:02:22.167Z,6.80
2022-09-23T10:03:32.453Z,6.25
2022-09-23T10:04:35.086Z,7.88
2022-09-23T10:05:45.697Z,6.35
2022-09-23T10:07:12.353Z,7.05
2022-09-23T10:08:35.083Z,6.70
2022-09-23T10:09:37.380Z,7.07
2022-09-23T10:10:40.316Z,6.50
2022-09-23T10:11:42.020Z,6.65
2022-09-23T10:12:46.743Z,6.47
2022-09-23T10:14:01.040Z,7.03
2022-09-23T10:15:02.637Z,6.18
2022-09-23T10:16:04.395Z,6.07
2022-09-23T10:17:06.881Z,7.13
2022-09-23T10:18:29.139Z,6.95
2022-09-23T10:19:30.922Z,6.20
2022-09-23T10:20:38.079Z,5.28
2022-09-23T10:21:40.846Z,7.10
2022-09-23T10:22:42.912Z,6.15
2022-09-23T10:23:55.688Z,7.72
2022-09-23T10:24:58.776Z,7.43
2022-09-23T10:26:01.980Z,7.80
2022-09-23T10:27:07.857Z,6.35
2022-09-23T10:28:31.730Z,6.47
2022-09-23T10:29:50.011Z,12.68
2022-09-23T10:31:08.099Z,6.37
2022-09-23T10:32:28.592Z,8.60
2022-09-23T10:33:31.233Z,6.15
2022-09-23T10:34:33.136Z,6.63
2022-09-23T10:35:35.139Z,6.05
2022-09-23T10:36:39.155Z,6.82
2022-09-23T10:37:58.950Z,6.75
2022-09-23T10:39:23.029Z,8.73
2022-09-23T10:40:48.734Z,5.60
2022-09-23T10:42:22.387Z,7.10
2022-09-23T10:44:00.949Z,6.50
2022-09-23T10:45:41.058Z,6.00
2022-09-23T10:47:04.703Z,5.88
2022-09-23T10:48:36.115Z,5.70
2022-09-23T10:50:08.119Z,5.60
2022-09-23T10:51:15.824Z,5.72
2022-09-23T10:52:46.491Z,7.63
2022-09-23T10:54:25.141Z,5.28
2022-09-23T10:55:45.622Z,5.60
2022-09-23T10:56:50.754Z,5.50
2022-09-23T10:57:58.542Z,5.30
2022-09-23T10:59:03.113Z,6.35
2022-09-23T11:00:09.077Z,5.80
2022-09-23T11:01:22.268Z,6.65
2022-09-23T11:02:35.144Z,6.13
2022-09-23T11:03:42.181Z,6.95
2022-09-23T11:05:12.082Z,7.45
2022-09-23T11:06:42.633Z,5.28
2022-09-23T11:08:23.034Z,5.60
2022-09-23T11:09:40.610Z,8.65
2022-09-23T11:11:04.041Z,7.37
2022-09-23T11:12:18.561Z,6.63
2022-09-23T11:13:40.758Z,5.10
2022-09-23T11:15:00.671Z,5.78
2022-09-23T11:16:20.840Z,6.50
2022-09-23T11:17:22.390Z,5.13
2022-09-23T11:18:49.279Z,4.72
2022-09-23T11:20:09.817Z,5.22
2022-09-23T11:21:24.230Z,6.57
2022-09-23T11:22:32.407Z,8.23
2022-09-23T11:24:00.278Z,5.55
2022-09-23T11:25:43.573Z,8.30
2022-09-23T11:27:05.081Z,4.85
2022-09-23T11:28:17.910Z,5.53
2022-09-23T11:29:22.321Z,6.18
2022-09-23T11:30:38.592Z,6.30
2022-09-23T11:32:17.552Z,5.25
2022-09-23T11:33:28.378Z,6.32
2022-09-23T11:34:52.543Z,6.85
2022-09-23T11:35:59.115Z,6.28
2022-09-23T11:37:15.407Z,7.20
2022-09-23T11:38:26.307Z,8.07
2022-09-23T11:39:40.248Z,5.18
2022-09-23T11:40:44.120Z,7.35
2022-09-23T11:41:47.961Z,5.25
2022-09-23T11:43:01.520Z,5.57
2022-09-23T11:44:14.888Z,5.05
2022-09-23T11:45:19.074Z,4.60
2022-09-23T11:46:37.840Z,6.20
2022-09-23T11:47:57.631Z,5.28
2022-09-23T11:49:08.181Z,6.33
2022-09-23T11:50:17.833Z,5.63
2022-09-23T11:51:35.033Z,6.13
2022-09-23T11:52:41.506Z,5.68
2022-09-23T11:53:48.551Z,5.15
2022-09-23T11:55:21.588Z,8.82
2022-09-23T11:56:35.319Z,6.57
2022-09-23T11:57:48.996Z,6.35
2022-09-23T11:59:36.039Z,6.75
2022-09-23T12:00:49.683Z,7.40
2022-09-23T12:02:11.219Z,7.43
2022-09-23T12:03:38.142Z,5.05
2022-09-23T12:04:54.559Z,6.30
2022-09-23T12:06:04.308Z,6.10
2022-09-23T12:07:08.453Z,6.75
2022-09-23T12:08:15.842Z,6.72
2022-09-23T12:10:05.552Z,6.75
2022-09-23T12:11:27.271Z,5.78
2022-09-23T12:13:05.035Z,6.20
2022-09-23T12:14:26.749Z,6.15
2022-09-23T12:15:37.426Z,6.23
2022-09-23T12:16:58.211Z,6.15
2022-09-23T12:18:11.133Z,9.52
2022-09-23T12:19:32.491Z,8.73
2022-09-23T12:20:52.786Z,6.35
2022-09-23T12:22:13.246Z,5.63
2022-09-23T12:23:29.826Z,7.30
2022-09-23T12:24:33.982Z,5.18
2022-09-23T12:25:47.077Z,5.07
2022-09-23T12:26:50.672Z,6.05
2022-09-23T12:27:53.162Z,5.13
2022-09-23T12:28:55.219Z,6.13
2022-09-23T12:30:02.171Z,4.57
2022-09-23T12:31:04.710Z,6.30
2022-09-23T12:32:10.194Z,4.55
2022-09-23T12:33:24.611Z,5.95
2022-09-23T12:34:34.502Z,5.78
2022-09-23T12:35:40.196Z,4.70
2022-09-23T12:36:42.818Z,5.53
2022-09-23T12:37:44.454Z,4.85
2022-09-23T12:39:04.388Z,8.13
2022-09-23T12:40:31.233Z,4.93
2022-09-23T12:41:37.627Z,5.53
2022-09-23T12:42:44.210Z,5.05
2022-09-23T12:43:55.407Z,4.85
2022-09-23T12:45:35.186Z,6.10
2022-09-23T12:46:36.836Z,5.25
2022-09-23T12:47:38.654Z,5.78
2022-09-23T12:48:44.329Z,5.40
2022-09-23T12:49:46.154Z,4.82
2022-09-23T12:50:51.372Z,5.13
2022-09-23T12:52:10.927Z,5.15
2022-09-23T12:53:34.372Z,6.60
2022-09-23T12:54:36.019Z,4.90
2022-09-23T12:55:41.595Z,5.13
2022-09-23T12:56:57.661Z,4.95
2022-09-23T12:57:59.253Z,4.80
2022-09-23T12:59:20.315Z,5.28
2022-09-23T13:00:26.921Z,4.88
2022-09-23T13:01:36.320Z,5.05
2022-09-23T13:02:46.914Z,6.10
2022-09-23T13:04:14.108Z,3.72
2022-09-23T13:05:41.371Z,4.38
2022-09-23T13:06:46.765Z,3.20
2022-09-23T13:07:49.066Z,4.10
2022-09-23T13:08:50.673Z,4.05
2022-09-23T13:09:56.953Z,4.43
2022-09-23T13:11:00.793Z,4.45
2022-09-23T13:12:02.925Z,3.97
2022-09-23T13:13:04.923Z,4.55
2022-09-23T13:14:07.281Z,4.10
2022-09-23T13:15:17.330Z,4.93
2022-09-23T13:16:42.004Z,4.30
2022-09-23T13:17:43.667Z,3.92
2022-09-23T13:18:57.853Z,3.10
2022-09-23T13:20:01.352Z,4.15
2022-09-23T13:21:03.004Z,3.95
2022-09-23T13:22:11.221Z,3.30
2022-09-23T13:23:25.112Z,4.72
2022-09-23T13:24:28.960Z,3.42
2022-09-23T13:25:34.718Z,3.57
2022-09-23T13:26:36.649Z,4.00
2022-09-23T13:27:38.239Z,3.95
2022-09-23T13:28:43.716Z,3.45
2022-09-23T13:29:56.340Z,3.33
2022-09-23T13:30:58.582Z,3.00
2022-09-23T13:32:02.185Z,3.33
2022-09-23T13:33:10.743Z,2.78
2022-09-23T13:34:13.212Z,3.58
2022-09-23T13:35:16.825Z,4.15
2022-09-23T13:36:19.350Z,4.20
2022-09-23T13:37:46.301Z,3.80
2022-09-23T13:38:48.389Z,3.55
2022-09-23T13:39:50.375Z,3.92
2022-09-23T13:40:55.175Z,3.17
2022-09-23T13:42:00.920Z,3.78
2022-09-23T13:43:04.960Z,4.25
2022-09-23T13:44:06.688Z,4.72
2022-09-23T13:45:19.200Z,4.95
2022-09-23T13:46:22.624Z,4.18
2022-09-23T13:47:25.862Z,4.13
2022-09-23T13:48:28.520Z,4.70
2022-09-23T13:49:32.701Z,4.15
2022-09-23T13:50:35.321Z,3.88
2022-09-23T13:51:36.996Z,3.20
2022-09-23T13:52:38.588Z,4.70
2022-09-23T13:53:40.258Z,3.53
2022-09-23T13:54:49.415Z,5.20
2022-09-23T13:56:20.603Z,3.53
2022-09-23T13:57:33.832Z,4.10
2022-09-23T13:58:35.774Z,3.30
2022-09-23T13:59:38.168Z,4.05
2022-09-23T14:00:39.935Z,6.50
2022-09-23T14:01:41.522Z,3.92
2022-09-23T14:02:43.522Z,6.13
2022-09-23T14:03:45.269Z,4.40
2022-09-23T14:04:47.415Z,4.57
2022-09-23T14:05:49.011Z,5.03
2022-09-23T14:06:50.573Z,4.13
2022-09-23T14:07:52.323Z,3.83
2022-09-23T14:08:54.915Z,4.63
2022-09-23T14:09:56.557Z,3.17
2022-09-23T14:10:58.632Z,4.55
2022-09-23T14:12:00.365Z,4.13
2022-09-23T14:13:01.965Z,5.07
2022-09-23T14:14:07.239Z,4.82
2022-09-23T14:15:15.447Z,11.70
2022-09-23T14:16:17.137Z,5.70
2022-09-23T14:17:20.837Z,5.13
2022-09-23T14:18:44.589Z,5.45
2022-09-23T14:19:46.399Z,4.17
2022-09-23T14:20:49.073Z,5.38
2022-09-23T14:21:53.079Z,4.20
2022-09-23T14:23:10.118Z,4.03
2022-09-23T14:24:17.640Z,4.10
2022-09-23T14:25:19.282Z,4.10
2022-09-23T14:26:21.581Z,4.22
2022-09-23T14:27:30.943Z,3.85
2022-09-23T14:28:32.523Z,3.90
2022-09-23T14:29:38.384Z,4.03
2022-09-23T14:30:40.067Z,3.40
2022-09-23T14:31:42.235Z,5.47
2022-09-23T14:32:44.295Z,5.35
2022-09-23T14:33:46.957Z,5.10
2022-09-23T14:34:55.024Z,4.70
2022-09-23T14:36:44.267Z,6.05
2022-09-23T14:38:05.224Z,5.32
2022-09-23T14:39:10.940Z,4.20
2022-09-23T14:40:16.344Z,4.22
2022-09-23T14:41:24.902Z,5.03
2022-09-23T14:42:27.974Z,6.63
2022-09-23T14:43:30.136Z,6.03
2022-09-23T14:44:35.221Z,8.07
2022-09-23T14:45:38.569Z,4.97
2022-09-23T14:46:56.628Z,4.40
2022-09-23T14:48:06.329Z,7.95
2022-09-23T14:49:10.520Z,6.30
2022-09-23T14:50:39.617Z,9.63
2022-09-23T14:51:41.435Z,7.82
2022-09-23T14:52:52.233Z,6.65